createdAt,value
2023-05-12T00:01:50.824Z,8.73
2023-05-12T00:04:21.817Z,8.37
2023-05-12T00:06:58.723Z,8.77
2023-05-12T00:09:31.606Z,8.60
2023-05-12T00:12:13.140Z,8.33
2023-05-12T00:14:51.897Z,9.90
2023-05-12T00:17:38.438Z,10.67
2023-05-12T00:20:17.963Z,13.03
2023-05-12T00:23:05.783Z,14.07
2023-05-12T00:25:45.143Z,14.43
2023-05-12T00:28:20.443Z,13.33
2023-05-12T00:31:03.295Z,12.07
2023-05-12T00:33:43.692Z,12.27
2023-05-12T00:36:22.468Z,11.73
2023-05-12T00:39:04.755Z,10.30
2023-05-12T00:41:45.483Z,9.30
2023-05-12T00:44:24.040Z,9.30
2023-05-12T00:47:04.540Z,8.97
2023-05-12T00:49:43.531Z,9.40
2023-05-12T00:52:17.160Z,7.77
2023-05-12T00:54:51.696Z,6.63
2023-05-12T00:57:27.984Z,7.13
2023-05-12T01:00:11.923Z,7.17
2023-05-12T01:02:50.702Z,6.53
2023-05-12T01:05:20.680Z,6.87
2023-05-12T01:08:07.109Z,6.80
2023-05-12T01:10:45.242Z,7.90
2023-05-12T01:13:16.589Z,8.10
2023-05-12T01:15:53.928Z,8.43
2023-05-12T01:18:35.239Z,9.57
2023-05-12T01:21:12.359Z,10.10
2023-05-12T01:23:52.924Z,11.57
2023-05-12T01:26:35.859Z,11.53
2023-05-12T01:29:15.259Z,13.57
2023-05-12T01:31:58.567Z,12.93
2023-05-12T01:34:38.667Z,12.67
2023-05-12T01:37:14.839Z,12.00
2023-05-12T01:39:43.675Z,13.10
2023-05-12T01:42:20.262Z,14.57
2023-05-12T01:45:01.361Z,14.10
2023-05-12T01:47:43.098Z,14.33
2023-05-12T01:50:25.298Z,14.93
2023-05-12T01:53:05.982Z,15.37
2023-05-12T01:55:49.342Z,16.80
2023-05-12T01:58:33.984Z,17.37
2023-05-12T02:01:03.440Z,19.10
2023-05-12T02:03:32.919Z,18.50
2023-05-12T02:06:00.871Z,17.57
2023-05-12T02:08:36.024Z,16.03
2023-05-12T02:11:16.417Z,17.73
2023-05-12T02:14:01.742Z,16.80
2023-05-12T02:16:39.757Z,15.63
2023-05-12T02:19:21.562Z,16.90
2023-05-12T02:22:00.706Z,14.87
2023-05-12T02:24:39.435Z,14.97
2023-05-12T02:27:15.883Z,15.00
2023-05-12T02:29:47.372Z,11.53
2023-05-12T02:32:28.028Z,13.97
2023-05-12T02:35:07.589Z,11.17
2023-05-12T02:37:56.627Z,8.83
2023-05-12T02:40:33.704Z,8.70
2023-05-12T02:43:15.440Z,7.87
2023-05-12T02:45:55.885Z,7.70
2023-05-12T02:48:31.376Z,8.23
2023-05-12T02:51:08.635Z,8.73
2023-05-12T02:53:44.103Z,8.80
2023-05-12T02:56:24.123Z,8.23
2023-05-12T02:59:03.759Z,8.80
2023-05-12T03:01:47.588Z,9.57
2023-05-12T03:04:25.665Z,10.07
2023-05-12T03:07:03.305Z,10.50
2023-05-12T03:09:43.264Z,10.43
2023-05-12T03:12:21.660Z,11.13
2023-05-12T03:15:10.396Z,11.00
2023-05-12T03:17:44.522Z,11.87
2023-05-12T03:20:14.693Z,12.37
2023-05-12T03:22:52.751Z,11.87
2023-05-12T03:25:29.380Z,11.23
2023-05-12T03:28:07.151Z,11.97
2023-05-12T03:30:44.716Z,11.40
2023-05-12T03:33:26.388Z,11.80
2023-05-12T03:36:07.151Z,10.60
2023-05-12T03:38:46.794Z,11.87
2023-05-12T03:41:24.790Z,10.97
2023-05-12T03:43:57.530Z,10.37
2023-05-12T03:46:36.234Z,10.33
2023-05-12T03:49:17.132Z,9.07
2023-05-12T03:51:54.352Z,9.77
2023-05-12T03:54:32.234Z,9.13
2023-05-12T03:57:14.837Z,8.80
2023-05-12T03:59:57.295Z,7.30
2023-05-12T04:02:43.070Z,6.17
2023-05-12T04:05:28.445Z,6.73
2023-05-12T04:08:10.800Z,6.23
2023-05-12T04:10:55.320Z,5.83
2023-05-12T04:13:36.930Z,5.80
2023-05-12T04:16:18.317Z,5.00
2023-05-12T04:18:55.428Z,5.07
2023-05-12T04:21:37.456Z,3.97
2023-05-12T04:24:11.670Z,4.47
2023-05-12T04:26:51.612Z,4.77
2023-05-12T04:29:32.542Z,4.07
2023-05-12T04:32:12.668Z,3.27
2023-05-12T04:34:50.353Z,3.53
2023-05-12T04:37:30.855Z,3.60
2023-05-12T04:40:10.127Z,4.00
2023-05-12T04:42:50.422Z,4.00
2023-05-12T04:45:29.454Z,3.73
2023-05-12T04:48:05.791Z,3.90
2023-05-12T04:50:44.382Z,3.40
2023-05-12T04:53:23.105Z,3.80
2023-05-12T04:55:56.944Z,2.93
2023-05-12T04:58:29.479Z,3.17
2023-05-12T05:01:00.079Z,3.30
2023-05-12T05:03:40.115Z,3.10
2023-05-12T05:06:19.096Z,3.07
2023-05-12T05:08:55.756Z,2.73
2023-05-12T05:11:33.689Z,3.20
2023-05-12T05:14:14.896Z,3.20
2023-05-12T05:16:56.390Z,2.80
2023-05-12T05:19:55.085Z,3.40
2023-05-12T05:22:35.233Z,3.00
2023-05-12T05:25:15.282Z,3.43
2023-05-12T05:27:54.306Z,3.23
2023-05-12T05:30:36.810Z,3.27
2023-05-12T05:33:18.731Z,3.20
2023-05-12T05:36:02.278Z,2.80
2023-05-12T05:38:43.753Z,2.90
2023-05-12T05:41:24.802Z,2.57
2023-05-12T05:44:07.741Z,3.17
2023-05-12T05:46:44.371Z,3.23
2023-05-12T05:49:24.167Z,3.30
2023-05-12T05:52:04.418Z,2.93
2023-05-12T05:54:38.929Z,3.30
2023-05-12T05:57:16.856Z,3.10
2023-05-12T05:59:55.219Z,2.90
2023-05-12T06:02:35.885Z,3.40
2023-05-12T06:05:19.242Z,3.40
2023-05-12T06:07:58.054Z,3.40
2023-05-12T06:10:45.155Z,3.40
2023-05-12T06:13:30.475Z,3.10
2023-05-12T06:16:10.493Z,3.37
2023-05-12T06:18:55.008Z,3.57
2023-05-12T06:21:40.022Z,3.50
2023-05-12T06:24:20.356Z,3.10
2023-05-12T06:27:00.097Z,3.57
2023-05-12T06:29:36.148Z,3.33
2023-05-12T06:32:17.631Z,3.77
2023-05-12T06:34:56.884Z,3.20
2023-05-12T06:37:33.566Z,3.50
2023-05-12T06:40:13.558Z,3.80
2023-05-12T06:42:51.985Z,3.40
2023-05-12T06:45:39.397Z,3.73
2023-05-12T06:48:25.245Z,4.00
2023-05-12T06:51:10.066Z,3.57
2023-05-12T06:53:49.857Z,3.47
2023-05-12T06:56:32.084Z,3.80
2023-05-12T06:59:10.904Z,3.63
2023-05-12T07:01:54.251Z,3.73
2023-05-12T07:04:32.494Z,3.50
2023-05-12T07:07:04.742Z,3.60
2023-05-12T07:09:49.303Z,3.67
2023-05-12T07:12:32.376Z,3.43
2023-05-12T07:15:15.876Z,3.27
2023-05-12T07:17:59.039Z,4.37
2023-05-12T07:20:39.726Z,3.20
2023-05-12T07:23:12.698Z,3.30
2023-05-12T07:25:45.370Z,3.00
2023-05-12T07:28:28.586Z,3.53
2023-05-12T07:31:11.610Z,3.57
2023-05-12T07:33:55.912Z,3.33
2023-05-12T07:36:43.966Z,3.30
2023-05-12T07:39:25.668Z,3.43
2023-05-12T07:42:03.902Z,2.90
2023-05-12T07:44:43.947Z,3.00
2023-05-12T07:47:17.679Z,3.00
2023-05-12T07:50:00.989Z,2.87
2023-05-12T07:52:47.753Z,3.03
2023-05-12T07:55:28.924Z,3.40
2023-05-12T07:58:15.963Z,3.50
2023-05-12T08:00:51.055Z,3.53
2023-05-12T08:03:39.040Z,3.77
2023-05-12T08:06:22.357Z,3.30
2023-05-12T08:09:03.967Z,3.37
2023-05-12T08:11:43.250Z,3.10
2023-05-12T08:14:27.132Z,3.30
2023-05-12T08:17:06.698Z,3.20
2023-05-12T08:19:41.915Z,3.13
2023-05-12T08:22:18.084Z,3.10
2023-05-12T08:24:56.381Z,3.10
2023-05-12T08:27:38.100Z,3.37
2023-05-12T08:30:26.025Z,3.60
2023-05-12T08:33:09.074Z,3.03
2023-05-12T08:35:44.025Z,3.60
2023-05-12T08:38:24.541Z,3.17
2023-05-12T08:41:23.348Z,3.03
2023-05-12T08:44:01.132Z,3.13
2023-05-12T08:46:44.514Z,3.03
2023-05-12T08:49:25.837Z,3.30
2023-05-12T08:52:03.320Z,3.33
2023-05-12T08:54:48.673Z,3.23
2023-05-12T08:57:36.949Z,2.93
2023-05-12T09:00:22.621Z,3.10
2023-05-12T09:03:00.422Z,3.83
2023-05-12T09:05:45.821Z,3.20
2023-05-12T09:08:30.932Z,3.70
2023-05-12T09:11:13.811Z,3.60
2023-05-12T09:14:01.373Z,3.17
2023-05-12T09:16:48.686Z,4.50
2023-05-12T09:19:23.056Z,4.00
2023-05-12T09:22:03.479Z,3.90
2023-05-12T09:24:39.813Z,3.77
2023-05-12T09:27:30.456Z,3.80
2023-05-12T09:30:14.941Z,3.93
2023-05-12T09:32:54.121Z,3.43
2023-05-12T09:35:31.787Z,3.20
2023-05-12T09:38:14.795Z,3.50
2023-05-12T09:40:59.709Z,3.77
2023-05-12T09:43:47.460Z,3.70
2023-05-12T09:46:29.132Z,3.43
2023-05-12T09:49:03.774Z,3.77
2023-05-12T09:51:37.468Z,3.10
2023-05-12T09:54:14.063Z,2.90
2023-05-12T09:57:02.505Z,3.40
2023-05-12T09:59:54.781Z,3.00
2023-05-12T10:02:30.246Z,3.20
2023-05-12T10:05:21.050Z,3.20
2023-05-12T10:08:04.756Z,3.10
2023-05-12T10:10:42.988Z,3.10
2023-05-12T10:13:22.409Z,2.77
2023-05-12T10:16:08.338Z,3.13
2023-05-12T10:18:48.570Z,3.00
2023-05-12T10:21:33.320Z,3.70
2023-05-12T10:24:17.610Z,2.90
2023-05-12T10:26:59.687Z,2.73
2023-05-12T10:29:42.834Z,2.93
2023-05-12T10:32:18.662Z,3.00
2023-05-12T10:35:09.076Z,2.83
2023-05-12T10:37:50.838Z,3.10
2023-05-12T10:40:32.000Z,3.13
2023-05-12T10:43:26.885Z,3.13
2023-05-12T10:46:08.815Z,3.20
2023-05-12T10:49:00.755Z,3.07
2023-05-12T10:51:49.663Z,3.17
2023-05-12T10:54:41.403Z,3.07
2023-05-12T10:57:21.593Z,3.50
2023-05-12T11:00:06.056Z,2.80
2023-05-12T11:02:52.029Z,3.00
2023-05-12T11:05:37.653Z,3.33
2023-05-12T11:08:19.825Z,3.40
2023-05-12T11:10:59.996Z,3.13
2023-05-12T11:13:39.446Z,3.20
2023-05-12T11:16:22.294Z,2.40
2023-05-12T11:19:02.025Z,3.10
2023-05-12T11:21:42.797Z,3.47
2023-05-12T11:24:21.314Z,3.70
2023-05-12T11:26:57.495Z,3.43
2023-05-12T11:29:35.588Z,3.67
2023-05-12T11:32:16.472Z,3.63
2023-05-12T11:35:09.744Z,3.53
2023-05-12T11:37:59.611Z,3.50
2023-05-12T11:40:33.523Z,3.03
2023-05-12T11:43:10.856Z,3.03
2023-05-12T11:45:50.367Z,3.20
2023-05-12T11:48:34.686Z,3.33
2023-05-12T11:51:11.705Z,3.40
2023-05-12T11:53:53.022Z,3.03
2023-05-12T11:56:36.871Z,3.10
2023-05-12T11:59:10.553Z,3.47
2023-05-12T12:01:53.105Z,3.67
2023-05-12T12:04:35.789Z,3.43
2023-05-12T12:07:30.163Z,3.47
2023-05-12T12:10:16.101Z,3.63
2023-05-12T12:12:55.782Z,3.80
2023-05-12T12:15:35.594Z,3.80
2023-05-12T12:18:19.505Z,4.10
2023-05-12T12:20:58.973Z,4.27
2023-05-12T12:23:44.096Z,3.90
2023-05-12T12:26:38.905Z,4.13
2023-05-12T12:29:20.816Z,4.13
2023-05-12T12:31:57.638Z,4.50
2023-05-12T12:34:37.346Z,4.37
2023-05-12T12:37:17.021Z,3.43
2023-05-12T12:39:55.377Z,3.70
2023-05-12T12:42:41.372Z,3.90
2023-05-12T12:45:20.661Z,4.03
2023-05-12T12:48:09.989Z,4.40
2023-05-12T12:50:50.540Z,4.33
2023-05-12T12:53:35.632Z,3.97
2023-05-12T12:56:13.836Z,3.80
2023-05-12T12:58:59.015Z,3.50
2023-05-12T13:01:40.762Z,3.70
2023-05-12T13:04:22.981Z,3.60
2023-05-12T13:07:07.260Z,3.30
2023-05-12T13:09:47.531Z,3.10
2023-05-12T13:12:31.412Z,3.10
2023-05-12T13:15:13.856Z,3.40
2023-05-12T13:17:52.066Z,3.80
2023-05-12T13:20:35.189Z,3.40
2023-05-12T13:23:08.386Z,3.53
2023-05-12T13:25:48.853Z,3.50
2023-05-12T13:28:24.791Z,3.20
2023-05-12T13:31:10.104Z,4.03
2023-05-12T13:33:53.129Z,4.00
2023-05-12T13:36:32.206Z,4.00
2023-05-12T13:39:11.388Z,3.90
2023-05-12T13:41:45.014Z,3.90
2023-05-12T13:44:15.967Z,3.93
2023-05-12T13:46:54.672Z,3.70
2023-05-12T13:49:33.744Z,3.80
2023-05-12T13:52:11.981Z,3.50
2023-05-12T13:54:56.052Z,3.50
2023-05-12T13:57:34.491Z,3.43
2023-05-12T14:00:17.557Z,3.77
2023-05-12T14:03:01.741Z,3.77
2023-05-12T14:05:38.430Z,3.90
2023-05-12T14:08:12.135Z,3.83
2023-05-12T14:10:53.162Z,3.60
2023-05-12T14:13:33.025Z,3.70
2023-05-12T14:16:18.648Z,3.57
2023-05-12T14:18:56.869Z,3.80
2023-05-12T14:21:41.221Z,3.57
2023-05-12T14:24:21.513Z,3.60
2023-05-12T14:27:04.535Z,3.97
2023-05-12T14:29:41.146Z,3.83
2023-05-12T14:32:19.532Z,3.67
2023-05-12T14:34:55.119Z,3.70
2023-05-12T14:37:28.111Z,3.40
2023-05-12T14:40:10.389Z,3.47
2023-05-12T14:42:48.917Z,3.80
2023-05-12T14:45:26.522Z,3.90
2023-05-12T14:48:10.189Z,4.33
2023-05-12T14:50:45.916Z,3.13
2023-05-12T14:53:19.998Z,3.30
2023-05-12T14:55:52.627Z,3.07
2023-05-12T14:58:28.428Z,3.73
2023-05-12T15:01:06.349Z,3.10
2023-05-12T15:03:46.689Z,3.07
2023-05-12T15:06:29.027Z,3.13
2023-05-12T15:09:10.721Z,2.80
2023-05-12T15:11:51.612Z,3.20
2023-05-12T15:14:25.898Z,3.20
2023-05-12T15:17:06.657Z,2.90
2023-05-12T15:19:46.171Z,3.33
2023-05-12T15:22:31.417Z,3.00
2023-05-12T15:25:12.666Z,3.30
2023-05-12T15:27:48.336Z,3.30
2023-05-12T15:30:22.862Z,3.40
2023-05-12T15:32:59.919Z,3.40
2023-05-12T15:35:40.629Z,3.40
2023-05-12T15:38:27.778Z,3.70
2023-05-12T15:41:01.763Z,4.20
2023-05-12T15:43:31.658Z,4.63
2023-05-12T15:46:04.597Z,5.70
2023-05-12T15:48:42.265Z,5.20
2023-05-12T15:51:20.397Z,4.60
2023-05-12T15:54:03.623Z,4.87
2023-05-12T15:56:39.152Z,5.50
2023-05-12T15:59:13.356Z,4.50
2023-05-12T16:01:44.298Z,5.10
2023-05-12T16:04:29.669Z,5.30
2023-05-12T16:07:09.805Z,5.83
2023-05-12T16:09:50.470Z,5.17
2023-05-12T16:12:27.244Z,5.20
2023-05-12T16:15:11.437Z,5.80
2023-05-12T16:17:51.460Z,6.03
2023-05-12T16:20:24.530Z,6.33
2023-05-12T16:22:53.486Z,5.90
2023-05-12T16:25:24.705Z,6.57
2023-05-12T16:28:00.559Z,6.77
2023-05-12T16:30:39.797Z,6.30
2023-05-12T16:33:20.377Z,7.70
2023-05-12T16:35:54.592Z,7.17
2023-05-12T16:38:32.275Z,7.20
2023-05-12T16:41:13.896Z,5.80
2023-05-12T16:44:01.942Z,7.10
2023-05-12T16:46:41.417Z,6.20
2023-05-12T16:49:23.275Z,6.03
2023-05-12T16:52:02.118Z,6.13
2023-05-12T16:54:46.306Z,7.33
2023-05-12T16:57:31.875Z,7.17
2023-05-12T17:00:14.913Z,6.83
2023-05-12T17:02:53.710Z,6.70
2023-05-12T17:05:38.042Z,7.83
2023-05-12T17:08:21.937Z,8.43
2023-05-12T17:11:09.664Z,6.53
2023-05-12T17:13:50.678Z,7.10
2023-05-12T17:16:34.104Z,8.10
2023-05-12T17:19:14.496Z,8.03
2023-05-12T17:21:52.848Z,7.83
2023-05-12T17:24:34.558Z,7.40
2023-05-12T17:27:08.775Z,7.03
2023-05-12T17:29:54.772Z,7.60
2023-05-12T17:32:25.208Z,8.10
2023-05-12T17:35:06.760Z,8.30
2023-05-12T17:37:47.969Z,7.60
2023-05-12T17:40:28.327Z,8.23
2023-05-12T17:43:11.933Z,7.50
2023-05-12T17:45:46.281Z,7.63
2023-05-12T17:48:30.985Z,7.83
2023-05-12T17:51:09.288Z,7.97
2023-05-12T17:53:51.700Z,7.40
2023-05-12T17:56:29.856Z,7.73
2023-05-12T17:59:09.995Z,8.57
2023-05-12T18:01:53.605Z,7.73
2023-05-12T18:04:37.151Z,8.07
2023-05-12T18:07:23.280Z,8.50
2023-05-12T18:10:01.344Z,8.90
2023-05-12T18:12:41.620Z,9.03
2023-05-12T18:15:28.588Z,8.07
2023-05-12T18:18:10.345Z,9.43
2023-05-12T18:20:59.484Z,8.87
2023-05-12T18:23:33.905Z,7.80
2023-05-12T18:26:08.913Z,7.90
2023-05-12T18:28:54.277Z,8.40
2023-05-12T18:31:44.109Z,7.13
2023-05-12T18:34:25.373Z,7.80
2023-05-12T18:37:04.915Z,7.90
2023-05-12T18:39:43.171Z,8.13
2023-05-12T18:42:18.888Z,8.00
2023-05-12T18:44:54.573Z,8.80
2023-05-12T18:47:33.266Z,8.10
2023-05-12T18:50:16.074Z,8.13
2023-05-12T18:52:59.284Z,7.73
2023-05-12T18:55:28.661Z,8.60
2023-05-12T18:57:58.405Z,8.10
2023-05-12T19:00:33.449Z,8.33
2023-05-12T19:03:13.129Z,8.20
2023-05-12T19:05:52.508Z,7.90
2023-05-12T19:08:32.804Z,7.80
2023-05-12T19:11:09.716Z,9.17
2023-05-12T19:13:47.457Z,8.80
2023-05-12T19:16:25.924Z,7.93
2023-05-12T19:19:06.504Z,8.20
2023-05-12T19:21:44.058Z,8.70
2023-05-12T19:24:26.766Z,8.80
2023-05-12T19:27:11.956Z,9.30
2023-05-12T19:29:48.558Z,9.87
2023-05-12T19:32:35.574Z,9.20
2023-05-12T19:35:15.681Z,8.50
2023-05-12T19:37:55.765Z,8.60
2023-05-12T19:40:39.227Z,8.70
2023-05-12T19:43:17.642Z,8.50
2023-05-12T19:45:58.879Z,8.60
2023-05-12T19:48:37.354Z,8.90
2023-05-12T19:51:18.301Z,8.87
2023-05-12T19:54:04.963Z,9.67
2023-05-12T19:56:50.217Z,8.43
2023-05-12T19:59:24.491Z,8.80
2023-05-12T20:02:06.373Z,9.13
2023-05-12T20:04:49.212Z,8.70
2023-05-12T20:07:29.950Z,9.80
2023-05-12T20:10:02.198Z,8.63
2023-05-12T20:12:31.791Z,8.83
2023-05-12T20:14:59.697Z,8.77
2023-05-12T20:17:37.200Z,9.27
2023-05-12T20:20:14.695Z,9.03
2023-05-12T20:22:53.496Z,9.77
2023-05-12T20:25:33.089Z,9.10
2023-05-12T20:28:17.281Z,9.37
2023-05-12T20:30:57.220Z,10.27
2023-05-12T20:33:41.353Z,9.50
2023-05-12T20:36:15.076Z,8.93
2023-05-12T20:38:53.950Z,10.17
2023-05-12T20:41:33.953Z,9.00
2023-05-12T20:44:15.848Z,9.83
2023-05-12T20:46:56.012Z,10.33
2023-05-12T20:49:33.569Z,10.10
2023-05-12T20:52:09.100Z,9.60
2023-05-12T20:54:57.164Z,9.60
2023-05-12T20:57:31.206Z,9.60
2023-05-12T21:00:14.508Z,10.43
2023-05-12T21:02:52.143Z,11.57
2023-05-12T21:05:41.636Z,9.70
2023-05-12T21:08:25.663Z,10.73
2023-05-12T21:11:04.308Z,11.20
2023-05-12T21:13:41.239Z,10.70
2023-05-12T21:16:25.887Z,11.27
2023-05-12T21:19:02.080Z,10.50
2023-05-12T21:21:31.656Z,11.20
2023-05-12T21:24:06.846Z,10.77
2023-05-12T21:26:38.261Z,9.97
2023-05-12T21:29:06.702Z,11.13
2023-05-12T21:31:47.355Z,11.57
2023-05-12T21:34:23.364Z,11.57
2023-05-12T21:37:06.285Z,10.80
2023-05-12T21:39:50.476Z,11.57
2023-05-12T21:42:30.100Z,12.20
2023-05-12T21:45:03.823Z,12.17
2023-05-12T21:47:50.036Z,11.00
2023-05-12T21:50:31.316Z,12.23
2023-05-12T21:53:09.399Z,12.07
2023-05-12T21:55:53.462Z,12.20
2023-05-12T21:58:28.182Z,11.07
2023-05-12T22:01:03.944Z,11.10
2023-05-12T22:03:33.843Z,12.60
2023-05-12T22:06:03.783Z,11.40
2023-05-12T22:08:34.367Z,12.00
2023-05-12T22:11:12.647Z,12.10
2023-05-12T22:13:52.551Z,11.43
2023-05-12T22:16:40.862Z,11.23
2023-05-12T22:19:28.130Z,11.27
2023-05-12T22:22:13.444Z,12.20
2023-05-12T22:24:52.890Z,10.90
2023-05-12T22:27:35.164Z,11.47
2023-05-12T22:30:10.653Z,11.60
2023-05-12T22:32:49.439Z,12.47
2023-05-12T22:35:30.497Z,12.00
2023-05-12T22:38:08.633Z,13.10
2023-05-12T22:40:50.646Z,10.80
2023-05-12T22:43:35.274Z,12.73
2023-05-12T22:46:13.646Z,11.37
2023-05-12T22:48:53.601Z,11.70
2023-05-12T22:51:29.222Z,12.63
2023-05-12T22:54:09.065Z,10.73
2023-05-12T22:56:47.902Z,10.10
2023-05-12T22:59:25.523Z,12.03
2023-05-12T23:02:11.615Z,11.77
2023-05-12T23:04:51.009Z,11.87
2023-05-12T23:07:29.485Z,12.13
2023-05-12T23:10:07.011Z,11.80
2023-05-12T23:12:47.007Z,10.93
2023-05-12T23:15:31.743Z,11.83
2023-05-12T23:18:10.546Z,11.70
2023-05-12T23:20:43.412Z,10.87
2023-05-12T23:23:24.590Z,11.60
2023-05-12T23:26:04.134Z,12.90
2023-05-12T23:28:48.755Z,10.40
2023-05-12T23:31:26.608Z,11.53
2023-05-12T23:34:05.700Z,11.27
2023-05-12T23:36:44.122Z,11.57
2023-05-12T23:39:21.939Z,10.90
2023-05-12T23:42:07.905Z,12.20
2023-05-12T23:44:54.032Z,11.27
2023-05-12T23:47:37.617Z,11.77
2023-05-12T23:50:11.417Z,11.40
2023-05-12T23:52:44.248Z,11.80
2023-05-12T23:55:20.865Z,12.17
2023-05-12T23:57:59.541Z,11.20
